sensor_id;sensor_type;location;lat;lon;timestamp;pressure;altitude;pressure_sealevel;temperature;humidity
76285;BME280;65096;50.998;7.098;2023-04-03T00:01:06;102272.19;;;3.34;53.74
76285;BME280;65096;50.998;7.098;2023-04-03T00:03:34;102266.91;;;3.31;53.85
76285;BME280;65096;50.998;7.098;2023-04-03T00:06:01;102271.91;;;3.29;53.65
76285;BME280;65096;50.998;7.098;2023-04-03T00:08:28;102267.41;;;3.25;53.89
76285;BME280;65096;50.998;7.098;2023-04-03T00:10:56;102267.13;;;3.21;53.80
76285;BME280;65096;50.998;7.098;2023-04-03T00:13:23;102269.03;;;3.10;54.17
76285;BME280;65096;50.998;7.098;2023-04-03T00:15:50;102264.84;;;3.11;53.95
76285;BME280;65096;50.998;7.098;2023-04-03T00:18:17;102261.38;;;3.10;53.73
76285;BME280;65096;50.998;7.098;2023-04-03T00:20:45;102269.13;;;3.12;53.80
76285;BME280;65096;50.998;7.098;2023-04-03T00:23:11;102269.84;;;3.09;53.80
76285;BME280;65096;50.998;7.098;2023-04-03T00:25:38;102271.88;;;3.02;53.89
76285;BME280;65096;50.998;7.098;2023-04-03T00:28:05;102272.06;;;3.05;53.91
76285;BME280;65096;50.998;7.098;2023-04-03T00:33:07;102271.72;;;2.99;53.77
76285;BME280;65096;50.998;7.098;2023-04-03T00:35:34;102266.44;;;2.96;54.24
76285;BME280;65096;50.998;7.098;2023-04-03T00:38:02;102270.63;;;2.95;53.93
76285;BME280;65096;50.998;7.098;2023-04-03T00:40:34;102254.78;;;2.86;53.79
76285;BME280;65096;50.998;7.098;2023-04-03T00:43:02;102265.53;;;2.95;53.90
76285;BME280;65096;50.998;7.098;2023-04-03T00:45:36;102265.25;;;2.91;53.88
76285;BME280;65096;50.998;7.098;2023-04-03T00:48:05;102264.38;;;2.90;54.07
76285;BME280;65096;50.998;7.098;2023-04-03T00:50:34;102263.25;;;2.85;54.29
76285;BME280;65096;50.998;7.098;2023-04-03T00:53:04;102263.16;;;2.84;53.92
76285;BME280;65096;50.998;7.098;2023-04-03T00:55:31;102260.28;;;2.79;54.20
76285;BME280;65096;50.998;7.098;2023-04-03T00:58:00;102259.53;;;2.80;54.15
76285;BME280;65096;50.998;7.098;2023-04-03T01:00:28;102261.88;;;2.77;53.99
76285;BME280;65096;50.998;7.098;2023-04-03T01:02:54;102257.56;;;2.76;53.83
76285;BME280;65096;50.998;7.098;2023-04-03T01:05:21;102260.09;;;2.76;53.79
76285;BME280;65096;50.998;7.098;2023-04-03T01:07:49;102254.72;;;2.72;54.39
76285;BME280;65096;50.998;7.098;2023-04-03T01:10:19;102257.19;;;2.70;54.11
76285;BME280;65096;50.998;7.098;2023-04-03T01:12:48;102237.81;;;2.59;54.29
76285;BME280;65096;50.998;7.098;2023-04-03T01:15:17;102255.22;;;2.66;54.30
76285;BME280;65096;50.998;7.098;2023-04-03T01:17:45;102262.66;;;2.63;54.51
76285;BME280;65096;50.998;7.098;2023-04-03T01:20:46;102253.28;;;2.62;54.70
76285;BME280;65096;50.998;7.098;2023-04-03T01:23:25;102259.84;;;2.59;54.52
76285;BME280;65096;50.998;7.098;2023-04-03T01:25:56;102258.84;;;2.57;54.30
76285;BME280;65096;50.998;7.098;2023-04-03T01:28:24;102251.72;;;2.51;54.62
76285;BME280;65096;50.998;7.098;2023-04-03T01:30:58;102252.53;;;2.50;54.58
76285;BME280;65096;50.998;7.098;2023-04-03T01:33:29;102254.94;;;2.49;54.98
76285;BME280;65096;50.998;7.098;2023-04-03T01:35:56;102254.75;;;2.46;54.57
76285;BME280;65096;50.998;7.098;2023-04-03T01:38:23;102253.78;;;2.44;54.93
76285;BME280;65096;50.998;7.098;2023-04-03T01:40:50;102257.19;;;2.44;54.66
76285;BME280;65096;50.998;7.098;2023-04-03T01:43:17;102258.78;;;2.42;54.57
76285;BME280;65096;50.998;7.098;2023-04-03T01:45:44;102257.72;;;2.39;54.86
76285;BME280;65096;50.998;7.098;2023-04-03T01:48:11;102272.88;;;2.37;54.90
76285;BME280;65096;50.998;7.098;2023-04-03T01:50:40;102269.94;;;2.31;54.61
76285;BME280;65096;50.998;7.098;2023-04-03T01:53:06;102263.97;;;2.31;54.95
76285;BME280;65096;50.998;7.098;2023-04-03T01:55:33;102256.06;;;2.26;55.04
76285;BME280;65096;50.998;7.098;2023-04-03T01:58:00;102263.69;;;2.26;55.27
76285;BME280;65096;50.998;7.098;2023-04-03T02:00:26;102255.81;;;2.23;54.96
76285;BME280;65096;50.998;7.098;2023-04-03T02:02:53;102247.91;;;2.19;54.93
76285;BME280;65096;50.998;7.098;2023-04-03T02:05:20;102255.44;;;2.17;55.24
76285;BME280;65096;50.998;7.098;2023-04-03T02:07:48;102258.59;;;2.13;55.47
76285;BME280;65096;50.998;7.098;2023-04-03T02:10:15;102254.84;;;2.08;55.01
76285;BME280;65096;50.998;7.098;2023-04-03T02:12:42;102262.00;;;2.01;55.25
76285;BME280;65096;50.998;7.098;2023-04-03T02:15:09;102263.94;;;2.05;54.98
76285;BME280;65096;50.998;7.098;2023-04-03T02:17:36;102254.47;;;2.02;54.93
76285;BME280;65096;50.998;7.098;2023-04-03T02:20:04;102267.56;;;1.95;55.51
76285;BME280;65096;50.998;7.098;2023-04-03T02:22:31;102256.16;;;1.90;55.31
76285;BME280;65096;50.998;7.098;2023-04-03T02:24:59;102262.81;;;1.88;55.20
76285;BME280;65096;50.998;7.098;2023-04-03T02:27:26;102257.22;;;1.80;55.32
76285;BME280;65096;50.998;7.098;2023-04-03T02:29:53;102265.75;;;1.81;55.80
76285;BME280;65096;50.998;7.098;2023-04-03T02:32:19;102229.13;;;1.66;55.84
76285;BME280;65096;50.998;7.098;2023-04-03T02:34:46;102268.38;;;1.82;55.70
76285;BME280;65096;50.998;7.098;2023-04-03T02:37:13;102254.38;;;1.76;55.72
76285;BME280;65096;50.998;7.098;2023-04-03T02:39:42;102268.94;;;1.78;55.61
76285;BME280;65096;50.998;7.098;2023-04-03T02:42:10;102270.63;;;1.78;55.42
76285;BME280;65096;50.998;7.098;2023-04-03T02:44:36;102268.75;;;1.75;55.69
76285;BME280;65096;50.998;7.098;2023-04-03T02:47:04;102273.19;;;1.78;55.44
76285;BME280;65096;50.998;7.098;2023-04-03T02:49:31;102271.38;;;1.77;55.44
76285;BME280;65096;50.998;7.098;2023-04-03T02:51:58;102269.66;;;1.76;55.29
76285;BME280;65096;50.998;7.098;2023-04-03T02:54:24;102274.53;;;1.73;55.64
76285;BME280;65096;50.998;7.098;2023-04-03T02:56:53;102276.78;;;1.68;55.49
76285;BME280;65096;50.998;7.098;2023-04-03T02:59:21;102280.28;;;1.70;55.87
76285;BME280;65096;50.998;7.098;2023-04-03T03:01:48;102283.59;;;1.69;55.97
76285;BME280;65096;50.998;7.098;2023-04-03T03:04:15;102277.63;;;1.69;56.16
76285;BME280;65096;50.998;7.098;2023-04-03T03:06:42;102282.72;;;1.69;56.00
76285;BME280;65096;50.998;7.098;2023-04-03T03:09:08;102280.56;;;1.62;55.82
76285;BME280;65096;50.998;7.098;2023-04-03T03:11:35;102276.44;;;1.64;55.88
76285;BME280;65096;50.998;7.098;2023-04-03T03:14:02;102281.53;;;1.64;55.69
76285;BME280;65096;50.998;7.098;2023-04-03T03:16:30;102284.66;;;1.60;55.99
76285;BME280;65096;50.998;7.098;2023-04-03T03:18:56;102273.59;;;1.59;55.94
76285;BME280;65096;50.998;7.098;2023-04-03T03:21:23;102279.56;;;1.60;55.71
76285;BME280;65096;50.998;7.098;2023-04-03T03:23:50;102286.22;;;1.58;56.02
76285;BME280;65096;50.998;7.098;2023-04-03T03:26:16;102289.44;;;1.55;55.66
76285;BME280;65096;50.998;7.098;2023-04-03T03:28:43;102282.78;;;1.57;55.83
76285;BME280;65096;50.998;7.098;2023-04-03T03:31:10;102261.72;;;1.47;55.43
76285;BME280;65096;50.998;7.098;2023-04-03T03:33:38;102281.03;;;1.56;55.55
76285;BME280;65096;50.998;7.098;2023-04-03T03:36:06;102274.75;;;1.51;55.85
76285;BME280;65096;50.998;7.098;2023-04-03T03:38:33;102274.63;;;1.50;55.95
76285;BME280;65096;50.998;7.098;2023-04-03T03:40:59;102281.28;;;1.48;55.60
76285;BME280;65096;50.998;7.098;2023-04-03T03:43:27;102283.94;;;1.49;55.76
76285;BME280;65096;50.998;7.098;2023-04-03T03:45:55;102285.50;;;1.47;55.66
76285;BME280;65096;50.998;7.098;2023-04-03T03:48:22;102278.31;;;1.42;55.71
76285;BME280;65096;50.998;7.098;2023-04-03T03:50:50;102279.66;;;1.37;56.13
76285;BME280;65096;50.998;7.098;2023-04-03T03:53:16;102276.06;;;1.33;56.43
76285;BME280;65096;50.998;7.098;2023-04-03T03:55:44;102281.25;;;1.35;56.32
76285;BME280;65096;50.998;7.098;2023-04-03T03:58:11;102278.22;;;1.40;56.24
76285;BME280;65096;50.998;7.098;2023-04-03T04:00:37;102278.91;;;1.38;56.47
76285;BME280;65096;50.998;7.098;2023-04-03T04:03:04;102277.03;;;1.35;56.45
76285;BME280;65096;50.998;7.098;2023-04-03T04:05:31;102278.44;;;1.43;55.69
76285;BME280;65096;50.998;7.098;2023-04-03T04:07:59;102277.56;;;1.43;56.17
76285;BME280;65096;50.998;7.098;2023-04-03T04:10:26;102282.41;;;1.40;56.13
76285;BME280;65096;50.998;7.098;2023-04-03T04:12:52;102277.56;;;1.43;55.79
76285;BME280;65096;50.998;7.098;2023-04-03T04:15:19;102278.31;;;1.42;55.99
76285;BME280;65096;50.998;7.098;2023-04-03T04:17:47;102282.75;;;1.44;55.84
76285;BME280;65096;50.998;7.098;2023-04-03T04:20:14;102292.59;;;1.40;55.76
76285;BME280;65096;50.998;7.098;2023-04-03T04:22:40;102283.31;;;1.40;55.65
76285;BME280;65096;50.998;7.098;2023-04-03T04:25:09;102291.81;;;1.41;55.63
76285;BME280;65096;50.998;7.098;2023-04-03T04:27:35;102269.88;;;1.30;55.90
76285;BME280;65096;50.998;7.098;2023-04-03T04:30:03;102293.25;;;1.37;56.01
76285;BME280;65096;50.998;7.098;2023-04-03T04:32:29;102291.72;;;1.39;56.30
76285;BME280;65096;50.998;7.098;2023-04-03T04:34:56;102291.72;;;1.39;56.13
76285;BME280;65096;50.998;7.098;2023-04-03T04:37:24;102289.38;;;1.42;55.77
76285;BME280;65096;50.998;7.098;2023-04-03T04:39:51;102294.16;;;1.38;55.68
76285;BME280;65096;50.998;7.098;2023-04-03T04:42:19;102302.75;;;1.40;56.03
76285;BME280;65096;50.998;7.098;2023-04-03T04:44:46;102298.25;;;1.36;55.96
76285;BME280;65096;50.998;7.098;2023-04-03T04:47:13;102288.97;;;1.36;55.89
76285;BME280;65096;50.998;7.098;2023-04-03T04:49:39;102306.06;;;1.39;55.87
76285;BME280;65096;50.998;7.098;2023-04-03T04:52:06;102305.97;;;1.37;55.44
76285;BME280;65096;50.998;7.098;2023-04-03T04:54:33;102310.16;;;1.37;55.43
76285;BME280;65096;50.998;7.098;2023-04-03T04:57:02;102304.78;;;1.32;55.87
76285;BME280;65096;50.998;7.098;2023-04-03T04:59:30;102312.59;;;1.35;55.91
76285;BME280;65096;50.998;7.098;2023-04-03T05:01:56;102310.75;;;1.33;55.95
76285;BME280;65096;50.998;7.098;2023-04-03T05:04:23;102315.25;;;1.37;55.79
76285;BME280;65096;50.998;7.098;2023-04-03T05:06:50;102313.09;;;1.30;55.81
76285;BME280;65096;50.998;7.098;2023-04-03T05:09:17;102312.81;;;1.38;55.88
76285;BME280;65096;50.998;7.098;2023-04-03T05:11:45;102324.66;;;1.38;55.66
76285;BME280;65096;50.998;7.098;2023-04-03T05:14:12;102322.88;;;1.37;55.88
76285;BME280;65096;50.998;7.098;2023-04-03T05:16:40;102322.13;;;1.38;55.62
76285;BME280;65096;50.998;7.098;2023-04-03T05:19:06;102324.44;;;1.35;55.86
76285;BME280;65096;50.998;7.098;2023-04-03T05:21:33;102320.91;;;1.33;55.93
76285;BME280;65096;50.998;7.098;2023-04-03T05:24:00;102336.56;;;1.39;55.97
76285;BME280;65096;50.998;7.098;2023-04-03T05:26:28;102332.72;;;1.32;55.98
76285;BME280;65096;50.998;7.098;2023-04-03T05:28:55;102332.38;;;1.39;55.57
76285;BME280;65096;50.998;7.098;2023-04-03T05:31:22;102339.13;;;1.39;55.91
76285;BME280;65096;50.998;7.098;2023-04-03T05:33:50;102336.56;;;1.39;55.97
76285;BME280;65096;50.998;7.098;2023-04-03T05:36:16;102329.94;;;1.41;55.65
76285;BME280;65096;50.998;7.098;2023-04-03T05:38:43;102335.94;;;1.41;56.14
76285;BME280;65096;50.998;7.098;2023-04-03T05:41:10;102338.47;;;1.41;55.89
76285;BME280;65096;50.998;7.098;2023-04-03T05:43:37;102346.28;;;1.44;55.89
76285;BME280;65096;50.998;7.098;2023-04-03T05:46:04;102350.59;;;1.45;55.67
76285;BME280;65096;50.998;7.098;2023-04-03T05:48:33;102350.78;;;1.48;55.63
76285;BME280;65096;50.998;7.098;2023-04-03T05:51:01;102350.91;;;1.50;55.84
76285;BME280;65096;50.998;7.098;2023-04-03T05:53:29;102355.88;;;1.48;55.54
76285;BME280;65096;50.998;7.098;2023-04-03T05:55:57;102359.41;;;1.50;55.65
76285;BME280;65096;50.998;7.098;2023-04-03T05:58:24;102360.41;;;1.52;55.54
76285;BME280;65096;50.998;7.098;2023-04-03T06:00:51;102354.22;;;1.49;55.57
76285;BME280;65096;50.998;7.098;2023-04-03T06:03:18;102361.06;;;1.50;55.73
76285;BME280;65096;50.998;7.098;2023-04-03T06:05:44;102362.63;;;1.48;55.25
76285;BME280;65096;50.998;7.098;2023-04-03T06:08:13;102366.72;;;1.46;55.53
76285;BME280;65096;50.998;7.098;2023-04-03T06:10:39;102369.94;;;1.43;55.64
76285;BME280;65096;50.998;7.098;2023-04-03T06:13:06;102379.44;;;1.46;55.76
76285;BME280;65096;50.998;7.098;2023-04-03T06:15:33;102378.31;;;1.54;55.62
76285;BME280;65096;50.998;7.098;2023-04-03T06:18:00;102376.72;;;1.56;55.80
76285;BME280;65096;50.998;7.098;2023-04-03T06:20:26;102375.38;;;1.61;55.93
76285;BME280;65096;50.998;7.098;2023-04-03T06:22:53;102370.31;;;1.61;55.78
76285;BME280;65096;50.998;7.098;2023-04-03T06:25:21;102372.94;;;1.62;56.08
76285;BME280;65096;50.998;7.098;2023-04-03T06:27:48;102385.88;;;1.65;55.50
76285;BME280;65096;50.998;7.098;2023-04-03T06:30:15;102378.69;;;1.71;56.00
76285;BME280;65096;50.998;7.098;2023-04-03T06:32:41;102378.09;;;1.75;55.63
76285;BME280;65096;50.998;7.098;2023-04-03T06:35:09;102381.28;;;1.84;55.53
76285;BME280;65096;50.998;7.098;2023-04-03T06:37:36;102373.59;;;1.96;55.46
76285;BME280;65096;50.998;7.098;2023-04-03T06:40:03;102376.25;;;1.97;55.52
76285;BME280;65096;50.998;7.098;2023-04-03T06:42:32;102375.91;;;2.05;55.17
76285;BME280;65096;50.998;7.098;2023-04-03T06:44:58;102379.03;;;2.14;54.92
76285;BME280;65096;50.998;7.098;2023-04-03T06:47:25;102376.63;;;2.28;55.31
76285;BME280;65096;50.998;7.098;2023-04-03T06:49:52;102380.75;;;2.26;54.61
76285;BME280;65096;50.998;7.098;2023-04-03T06:52:19;102378.81;;;2.35;54.11
76285;BME280;65096;50.998;7.098;2023-04-03T06:54:46;102385.00;;;2.39;54.40
76285;BME280;65096;50.998;7.098;2023-04-03T06:57:12;102383.53;;;2.55;54.12
76285;BME280;65096;50.998;7.098;2023-04-03T06:59:42;102384.50;;;2.57;53.97
76285;BME280;65096;50.998;7.098;2023-04-03T07:02:10;102372.97;;;2.62;54.24
76285;BME280;65096;50.998;7.098;2023-04-03T07:04:37;102380.13;;;2.68;53.84
76285;BME280;65096;50.998;7.098;2023-04-03T07:07:04;102379.81;;;2.76;53.50
76285;BME280;65096;50.998;7.098;2023-04-03T07:09:31;102381.38;;;2.87;53.92
76285;BME280;65096;50.998;7.098;2023-04-03T07:11:58;102382.75;;;2.95;53.21
76285;BME280;65096;50.998;7.098;2023-04-03T07:14:24;102383.63;;;2.96;53.60
76285;BME280;65096;50.998;7.098;2023-04-03T07:16:52;102391.38;;;2.97;52.50
76285;BME280;65096;50.998;7.098;2023-04-03T07:19:19;102387.75;;;3.07;51.85
76285;BME280;65096;50.998;7.098;2023-04-03T07:21:46;102392.53;;;3.15;51.31
76285;BME280;65096;50.998;7.098;2023-04-03T07:24:13;102395.19;;;3.17;51.79
76285;BME280;65096;50.998;7.098;2023-04-03T07:26:40;102396.00;;;3.43;51.73
76285;BME280;65096;50.998;7.098;2023-04-03T07:29:07;102391.06;;;3.60;52.01
76285;BME280;65096;50.998;7.098;2023-04-03T07:31:34;102388.88;;;3.66;51.11
76285;BME280;65096;50.998;7.098;2023-04-03T07:34:02;102398.44;;;3.83;50.21
76285;BME280;65096;50.998;7.098;2023-04-03T07:36:29;102394.22;;;3.98;49.48
76285;BME280;65096;50.998;7.098;2023-04-03T07:38:58;102399.50;;;4.01;50.13
76285;BME280;65096;50.998;7.098;2023-04-03T07:41:25;102393.03;;;4.20;49.46
76285;BME280;65096;50.998;7.098;2023-04-03T07:43:51;102397.69;;;4.40;48.53
76285;BME280;65096;50.998;7.098;2023-04-03T07:46:18;102400.41;;;4.58;49.28
76285;BME280;65096;50.998;7.098;2023-04-03T07:48:46;102388.41;;;4.71;47.69
76285;BME280;65096;50.998;7.098;2023-04-03T07:51:14;102397.13;;;4.75;47.69
76285;BME280;65096;50.998;7.098;2023-04-03T07:53:41;102389.78;;;4.96;47.40
76285;BME280;65096;50.998;7.098;2023-04-03T07:56:11;102389.75;;;5.10;46.78
76285;BME280;65096;50.998;7.098;2023-04-03T07:58:38;102393.59;;;5.18;45.94
76285;BME280;65096;50.998;7.098;2023-04-03T08:01:05;102392.34;;;5.26;47.09
76285;BME280;65096;50.998;7.098;2023-04-03T08:03:32;102396.94;;;5.48;44.78
76285;BME280;65096;50.998;7.098;2023-04-03T08:06:02;102390.22;;;5.66;46.03
76285;BME280;65096;50.998;7.098;2023-04-03T08:08:31;102390.81;;;5.76;45.76
76285;BME280;65096;50.998;7.098;2023-04-03T08:10:59;102382.31;;;5.77;44.96
76285;BME280;65096;50.998;7.098;2023-04-03T08:13:27;102387.31;;;6.08;45.15
76285;BME280;65096;50.998;7.098;2023-04-03T08:15:54;102386.78;;;6.29;45.25
76285;BME280;65096;50.998;7.098;2023-04-03T08:18:22;102377.56;;;6.51;43.07
76285;BME280;65096;50.998;7.098;2023-04-03T08:20:50;102376.81;;;6.69;43.76
76285;BME280;65096;50.998;7.098;2023-04-03T08:23:16;102363.91;;;6.68;42.64
76285;BME280;65096;50.998;7.098;2023-04-03T08:25:45;102387.69;;;7.00;42.16
76285;BME280;65096;50.998;7.098;2023-04-03T08:28:12;102381.31;;;7.10;42.36
76285;BME280;65096;50.998;7.098;2023-04-03T08:30:39;102383.72;;;7.24;42.55
76285;BME280;65096;50.998;7.098;2023-04-03T08:33:07;102387.41;;;7.48;39.07
76285;BME280;65096;50.998;7.098;2023-04-03T08:35:38;102370.72;;;7.58;38.58
76285;BME280;65096;50.998;7.098;2023-04-03T08:38:05;102384.88;;;7.87;40.84
76285;BME280;65096;50.998;7.098;2023-04-03T08:40:32;102392.38;;;8.01;40.29
76285;BME280;65096;50.998;7.098;2023-04-03T08:43:10;102389.72;;;8.19;41.11
76285;BME280;65096;50.998;7.098;2023-04-03T08:45:49;102385.72;;;8.46;40.50
76285;BME280;65096;50.998;7.098;2023-04-03T08:48:19;102387.50;;;8.67;36.30
76285;BME280;65096;50.998;7.098;2023-04-03T08:50:49;102402.34;;;8.95;38.15
76285;BME280;65096;50.998;7.098;2023-04-03T08:53:19;102390.84;;;9.07;37.63
76285;BME280;65096;50.998;7.098;2023-04-03T08:55:48;102388.28;;;9.30;32.48
76285;BME280;65096;50.998;7.098;2023-04-03T08:58:19;102388.88;;;9.23;34.97
76285;BME280;65096;50.998;7.098;2023-04-03T09:00:49;102396.34;;;9.39;34.71
76285;BME280;65096;50.998;7.098;2023-04-03T09:03:18;102391.56;;;9.48;31.88
76285;BME280;65096;50.998;7.098;2023-04-03T09:05:48;102387.56;;;9.56;33.96
76285;BME280;65096;50.998;7.098;2023-04-03T09:08:22;102379.88;;;10.04;35.18
76285;BME280;65096;50.998;7.098;2023-04-03T09:10:58;102385.13;;;10.31;32.10
76285;BME280;65096;50.998;7.098;2023-04-03T09:13:30;102385.00;;;10.26;30.26
76285;BME280;65096;50.998;7.098;2023-04-03T09:16:19;102380.41;;;10.68;34.24
76285;BME280;65096;50.998;7.098;2023-04-03T09:18:52;102384.81;;;10.99;30.94
76285;BME280;65096;50.998;7.098;2023-04-03T09:21:25;102387.28;;;11.22;33.82
76285;BME280;65096;50.998;7.098;2023-04-03T09:23:58;102378.78;;;11.53;33.58
76285;BME280;65096;50.998;7.098;2023-04-03T09:26:30;102392.91;;;11.65;32.74
76285;BME280;65096;50.998;7.098;2023-04-03T09:29:05;102381.66;;;11.35;30.49
76285;BME280;65096;50.998;7.098;2023-04-03T09:31:35;102391.06;;;11.61;31.56
76285;BME280;65096;50.998;7.098;2023-04-03T09:34:06;102390.28;;;11.64;30.94
76285;BME280;65096;50.998;7.098;2023-04-03T09:36:38;102383.53;;;11.69;31.96
76285;BME280;65096;50.998;7.098;2023-04-03T09:39:10;102383.25;;;11.89;30.66
76285;BME280;65096;50.998;7.098;2023-04-03T09:41:38;102387.00;;;12.00;31.97
76285;BME280;65096;50.998;7.098;2023-04-03T09:44:20;102381.59;;;12.24;32.75
76285;BME280;65096;50.998;7.098;2023-04-03T09:46:47;102386.25;;;12.37;29.39
76285;BME280;65096;50.998;7.098;2023-04-03T09:49:14;102377.53;;;12.66;31.17
76285;BME280;65096;50.998;7.098;2023-04-03T09:51:41;102373.41;;;12.73;29.58
76285;BME280;65096;50.998;7.098;2023-04-03T09:54:35;102376.84;;;13.10;28.29
76285;BME280;65096;50.998;7.098;2023-04-03T09:57:09;102370.59;;;13.01;27.73
76285;BME280;65096;50.998;7.098;2023-04-03T09:59:42;102371.28;;;13.32;29.28
76285;BME280;65096;50.998;7.098;2023-04-03T10:02:24;102367.16;;;13.42;28.61
76285;BME280;65096;50.998;7.098;2023-04-03T10:04:55;102357.81;;;13.48;26.47
76285;BME280;65096;50.998;7.098;2023-04-03T10:07:27;102354.16;;;13.79;26.85
76285;BME280;65096;50.998;7.098;2023-04-03T10:09:55;102358.41;;;13.77;27.92
76285;BME280;65096;50.998;7.098;2023-04-03T10:12:22;102354.50;;;13.97;26.52
76285;BME280;65096;50.998;7.098;2023-04-03T10:14:56;102351.22;;;14.07;25.95
76285;BME280;65096;50.998;7.098;2023-04-03T10:17:35;102341.06;;;14.19;27.49
76285;BME280;65096;50.998;7.098;2023-04-03T10:20:10;102333.66;;;14.42;24.89
76285;BME280;65096;50.998;7.098;2023-04-03T10:22:49;102345.19;;;14.57;27.14
76285;BME280;65096;50.998;7.098;2023-04-03T10:25:30;102342.03;;;14.78;25.53
76285;BME280;65096;50.998;7.098;2023-04-03T10:28:02;102343.25;;;15.00;26.04
76285;BME280;65096;50.998;7.098;2023-04-03T10:30:42;102328.91;;;14.67;24.51
76285;BME280;65096;50.998;7.098;2023-04-03T10:33:34;102329.13;;;14.81;25.56
76285;BME280;65096;50.998;7.098;2023-04-03T10:36:19;102326.53;;;14.81;24.91
76285;BME280;65096;50.998;7.098;2023-04-03T10:38:56;102320.00;;;15.12;23.88
76285;BME280;65096;50.998;7.098;2023-04-03T10:41:31;102325.66;;;14.82;22.46
76285;BME280;65096;50.998;7.098;2023-04-03T10:44:08;102332.84;;;15.00;22.55
76285;BME280;65096;50.998;7.098;2023-04-03T10:46:42;102336.41;;;15.06;21.00
76285;BME280;65096;50.998;7.098;2023-04-03T10:49:20;102331.13;;;14.99;22.41
76285;BME280;65096;50.998;7.098;2023-04-03T10:51:55;102321.09;;;15.26;23.13
76285;BME280;65096;50.998;7.098;2023-04-03T10:54:28;102321.59;;;15.68;22.63
76285;BME280;65096;50.998;7.098;2023-04-03T10:57:00;102314.75;;;15.76;21.33
76285;BME280;65096;50.998;7.098;2023-04-03T10:59:31;102318.41;;;15.93;21.76
76285;BME280;65096;50.998;7.098;2023-04-03T11:02:03;102306.25;;;15.92;24.01
76285;BME280;65096;50.998;7.098;2023-04-03T11:04:35;102304.03;;;16.30;22.33
76285;BME280;65096;50.998;7.098;2023-04-03T11:07:08;102304.13;;;16.45;22.27
76285;BME280;65096;50.998;7.098;2023-04-03T11:09:40;102300.78;;;16.64;21.28
76285;BME280;65096;50.998;7.098;2023-04-03T11:12:12;102299.09;;;16.72;21.92
76285;BME280;65096;50.998;7.098;2023-04-03T11:14:39;102306.84;;;16.58;21.55
76285;BME280;65096;50.998;7.098;2023-04-03T11:17:21;102301.63;;;16.55;20.37
76285;BME280;65096;50.998;7.098;2023-04-03T11:19:59;102299.84;;;16.51;20.21
76285;BME280;65096;50.998;7.098;2023-04-03T11:22:28;102285.25;;;16.74;21.23
76285;BME280;65096;50.998;7.098;2023-04-03T11:24:59;102284.50;;;16.93;20.34
76285;BME280;65096;50.998;7.098;2023-04-03T11:27:35;102294.75;;;16.68;20.04
76285;BME280;65096;50.998;7.098;2023-04-03T11:30:09;102287.09;;;16.95;21.21
76285;BME280;65096;50.998;7.098;2023-04-03T11:33:00;102275.09;;;17.18;20.18
76285;BME280;65096;50.998;7.098;2023-04-03T11:35:30;102269.06;;;17.35;20.17
76285;BME280;65096;50.998;7.098;2023-04-03T11:37:57;102266.41;;;17.26;19.63
76285;BME280;65096;50.998;7.098;2023-04-03T11:40:28;102261.19;;;17.19;20.29
76285;BME280;65096;50.998;7.098;2023-04-03T11:43:05;102268.19;;;17.30;19.00
76285;BME280;65096;50.998;7.098;2023-04-03T11:45:37;102266.50;;;17.55;19.75
76285;BME280;65096;50.998;7.098;2023-04-03T11:48:09;102269.09;;;17.53;17.52
76285;BME280;65096;50.998;7.098;2023-04-03T11:50:54;102262.97;;;17.30;19.31
76285;BME280;65096;50.998;7.098;2023-04-03T11:53:32;102261.25;;;17.46;19.36
76285;BME280;65096;50.998;7.098;2023-04-03T11:56:01;102254.34;;;17.60;19.07
76285;BME280;65096;50.998;7.098;2023-04-03T11:58:30;102248.28;;;17.75;17.96
76285;BME280;65096;50.998;7.098;2023-04-03T12:01:04;102237.81;;;17.82;18.70
76285;BME280;65096;50.998;7.098;2023-04-03T12:07:08;102239.56;;;17.71;19.40
76285;BME280;65096;50.998;7.098;2023-04-03T12:09:58;102233.50;;;17.80;16.99
76285;BME280;65096;50.998;7.098;2023-04-03T12:12:32;102236.97;;;17.85;18.49
76285;BME280;65096;50.998;7.098;2023-04-03T12:15:23;102233.53;;;18.05;18.92
76285;BME280;65096;50.998;7.098;2023-04-03T12:17:51;102230.94;;;17.95;18.04
76285;BME280;65096;50.998;7.098;2023-04-03T12:20:55;102228.31;;;18.25;17.38
76285;BME280;65096;50.998;7.098;2023-04-03T12:23:31;102232.66;;;18.12;16.86
76285;BME280;65096;50.998;7.098;2023-04-03T12:26:19;102228.25;;;18.38;17.13
76285;BME280;65096;50.998;7.098;2023-04-03T12:28:48;102227.41;;;18.42;18.26
76285;BME280;65096;50.998;7.098;2023-04-03T12:31:15;102225.66;;;17.81;16.60
76285;BME280;65096;50.998;7.098;2023-04-03T12:34:00;102220.34;;;17.21;18.31
76285;BME280;65096;50.998;7.098;2023-04-03T12:36:39;102216.09;;;17.77;18.31
76285;BME280;65096;50.998;7.098;2023-04-03T12:39:26;102214.38;;;17.85;16.90
76285;BME280;65096;50.998;7.098;2023-04-03T12:42:09;102222.19;;;17.63;16.12
76285;BME280;65096;50.998;7.098;2023-04-03T12:44:47;102219.53;;;17.44;17.75
76285;BME280;65096;50.998;7.098;2023-04-03T12:47:28;102215.22;;;17.74;17.22
76285;BME280;65096;50.998;7.098;2023-04-03T12:49:58;102217.81;;;17.64;17.73
76285;BME280;65096;50.998;7.098;2023-04-03T12:52:34;102206.53;;;17.66;17.28
76285;BME280;65096;50.998;7.098;2023-04-03T12:55:07;102206.31;;;16.99;18.34
76285;BME280;65096;50.998;7.098;2023-04-03T12:57:35;102203.88;;;17.52;18.82
76285;BME280;65096;50.998;7.098;2023-04-03T13:00:21;102192.59;;;17.71;17.53
76285;BME280;65096;50.998;7.098;2023-04-03T13:02:48;102206.50;;;17.40;16.82
76285;BME280;65096;50.998;7.098;2023-04-03T13:05:18;102194.25;;;17.13;17.53
76285;BME280;65096;50.998;7.098;2023-04-03T13:07:49;102197.34;;;16.37;16.28
76285;BME280;65096;50.998;7.098;2023-04-03T13:10:18;102189.50;;;16.33;18.25
76285;BME280;65096;50.998;7.098;2023-04-03T13:12:48;102203.69;;;16.86;18.25
76285;BME280;65096;50.998;7.098;2023-04-03T13:15:17;102182.44;;;16.16;18.06
76285;BME280;65096;50.998;7.098;2023-04-03T13:17:45;102195.75;;;16.59;18.07